Time;durP1;ratioP1;P1;durP2;ratioP2;P2;SDS_P1;SDS_P2;PMS_P1;PMS_P2;Temp;Humidity;BMP_temperature;BMP_pressure;BME280_temperature;BME280_humidity;BME280_pressure;Samples;Min_cycle;Max_cycle;Signal;HPM_P1;HPM_P2
2022/11/16 00:00:10;;;;;;;6.53;5.28;;;;;;;;;;1039459;28;20100;-77
2022/11/16 00:00:41;;;;;;;7.53;5.97;;;;;;;;;;1039396;28;20446;-78
2022/11/16 00:01:13;;;;;;;6.00;5.28;;;;;;;;;;1038964;28;20510;-77
2022/11/16 00:01:44;;;;;;;6.15;5.13;;;;;;;;;;1039052;28;20014;-77
2022/11/16 00:02:15;;;;;;;6.88;6.18;;;;;;;;;;1036878;28;20120;-76
2022/11/16 00:02:50;;;;;;;4.95;4.47;;;;;;;;;;1039721;28;20112;-77
2022/11/16 00:03:22;;;;;;;6.38;5.78;;;;;;;;;;1039059;28;20500;-76
2022/11/16 00:03:54;;;;;;;7.22;5.18;;;;;;;;;;1040086;28;20032;-77
2022/11/16 00:04:25;;;;;;;5.28;4.55;;;;;;;;;;1042974;28;20029;-77
2022/11/16 00:04:55;;;;;;;6.88;4.72;;;;;;;;;;1043259;28;20029;-79
2022/11/16 00:05:26;;;;;;;5.68;4.55;;;;;;;;;;1042110;28;20032;-78
2022/11/16 00:06:01;;;;;;;7.30;5.20;;;;;;;;;;1039481;28;20021;-78
2022/11/16 00:06:32;;;;;;;5.70;4.30;;;;;;;;;;1038717;28;20560;-76
2022/11/16 00:07:03;;;;;;;6.07;5.45;;;;;;;;;;1039925;28;20564;-77
2022/11/16 00:07:34;;;;;;;8.40;5.13;;;;;;;;;;1042813;28;20028;-77
2022/11/16 00:08:05;;;;;;;6.05;4.90;;;;;;;;;;1043287;28;20136;-76
2022/11/16 00:08:37;;;;;;;7.03;5.68;;;;;;;;;;1043227;28;20092;-76
2022/11/16 00:09:22;;;;;;;6.22;5.30;;;;;;;;;;1047374;28;20048;-77
2022/11/16 00:09:53;;;;;;;7.03;6.32;;;;;;;;;;1047281;28;20020;-77
2022/11/16 00:10:24;;;;;;;6.50;5.07;;;;;;;;;;1047130;28;20024;-77
2022/11/16 00:10:55;;;;;;;7.82;5.28;;;;;;;;;;1043792;28;20191;-77
2022/11/16 00:11:26;;;;;;;5.45;4.07;;;;;;;;;;1043319;28;20100;-77
2022/11/16 00:11:59;;;;;;;5.38;4.55;;;;;;;;;;1043187;28;20131;-77
2022/11/16 00:12:30;;;;;;;5.38;4.07;;;;;;;;;;1042949;28;20021;-77
2022/11/16 00:13:00;;;;;;;6.90;5.32;;;;;;;;;;1043329;28;20021;-77
2022/11/16 00:13:35;;;;;;;5.78;5.05;;;;;;;;;;1043434;28;20855;-77
2022/11/16 00:14:06;;;;;;;6.53;4.75;;;;;;;;;;1043074;28;20059;-76
2022/11/16 00:14:37;;;;;;;5.93;4.72;;;;;;;;;;1042907;28;20029;-76
2022/11/16 00:15:08;;;;;;;6.65;5.32;;;;;;;;;;1043292;28;20027;-76
2022/11/16 00:15:39;;;;;;;6.63;5.15;;;;;;;;;;1042984;28;20033;-76
2022/11/16 00:16:15;;;;;;;6.30;4.45;;;;;;;;;;1046343;28;20028;-76
2022/11/16 00:16:46;;;;;;;6.60;5.97;;;;;;;;;;1038979;28;20025;-77
2022/11/16 00:17:17;;;;;;;6.93;5.90;;;;;;;;;;1038979;28;20030;-77
2022/11/16 00:17:48;;;;;;;5.93;5.28;;;;;;;;;;1039108;28;20555;-76
2022/11/16 00:18:19;;;;;;;6.00;5.15;;;;;;;;;;1039490;28;20028;-76
2022/11/16 00:18:54;;;;;;;5.28;4.05;;;;;;;;;;1043317;28;20079;-77
2022/11/16 00:19:26;;;;;;;6.10;5.50;;;;;;;;;;1042963;28;20383;-77
2022/11/16 00:19:57;;;;;;;5.70;4.30;;;;;;;;;;1043262;28;20025;-77
2022/11/16 00:20:28;;;;;;;6.68;3.92;;;;;;;;;;1043210;28;20017;-77
2022/11/16 00:20:59;;;;;;;7.38;6.28;;;;;;;;;;1043544;28;20122;-77
2022/11/16 00:21:30;;;;;;;5.07;4.25;;;;;;;;;;1047451;28;20416;-77
2022/11/16 00:22:01;;;;;;;5.20;4.68;;;;;;;;;;1043715;28;20031;-77
2022/11/16 00:22:32;;;;;;;5.00;4.47;;;;;;;;;;1043092;28;20039;-77
2022/11/16 00:23:03;;;;;;;7.25;5.13;;;;;;;;;;1043502;28;20025;-77
2022/11/16 00:23:36;;;;;;;6.95;5.00;;;;;;;;;;1039780;28;20375;-78
2022/11/16 00:24:09;;;;;;;5.63;4.97;;;;;;;;;;1043855;28;20017;-77
2022/11/16 00:24:40;;;;;;;6.65;4.85;;;;;;;;;;1039962;28;20025;-77
2022/11/16 00:25:11;;;;;;;6.38;5.15;;;;;;;;;;1040764;28;20049;-77
2022/11/16 00:25:42;;;;;;;5.18;4.38;;;;;;;;;;1044242;28;20029;-77
2022/11/16 00:26:13;;;;;;;6.65;4.40;;;;;;;;;;1043846;28;20025;-78
2022/11/16 00:26:45;;;;;;;7.00;5.43;;;;;;;;;;1043989;28;20021;-78
2022/11/16 00:27:16;;;;;;;6.10;5.50;;;;;;;;;;1044236;28;20353;-77
2022/11/16 00:27:47;;;;;;;6.25;5.65;;;;;;;;;;1044935;28;20425;-77
2022/11/16 00:28:18;;;;;;;4.90;4.30;;;;;;;;;;1043822;28;20476;-77
2022/11/16 00:28:49;;;;;;;5.30;4.65;;;;;;;;;;1043958;28;20031;-77
2022/11/16 00:29:22;;;;;;;5.40;4.30;;;;;;;;;;1044299;28;20124;-77
2022/11/16 00:29:53;;;;;;;5.50;4.63;;;;;;;;;;1048127;28;20042;-77
2022/11/16 00:30:24;;;;;;;5.25;4.70;;;;;;;;;;1047356;28;20391;-77
2022/11/16 00:31:02;;;;;;;4.50;3.83;;;;;;;;;;1039721;28;20064;-77
2022/11/16 00:31:33;;;;;;;7.35;5.95;;;;;;;;;;1035836;28;20037;-77
2022/11/16 00:32:04;;;;;;;5.97;4.70;;;;;;;;;;1035965;28;20109;-77
2022/11/16 00:32:35;;;;;;;5.25;4.75;;;;;;;;;;1036811;28;20022;-78
2022/11/16 00:33:06;;;;;;;5.45;4.95;;;;;;;;;;1036123;28;20420;-77
2022/11/16 00:33:38;;;;;;;6.00;4.20;;;;;;;;;;1039823;28;20029;-77
2022/11/16 00:34:09;;;;;;;6.07;5.32;;;;;;;;;;1040089;28;20061;-76
2022/11/16 00:34:40;;;;;;;4.88;4.40;;;;;;;;;;1040010;28;20112;-77
2022/11/16 00:35:11;;;;;;;5.60;5.10;;;;;;;;;;1042951;28;20029;-77
2022/11/16 00:35:42;;;;;;;6.68;6.03;;;;;;;;;;1043908;28;20552;-76
2022/11/16 00:36:13;;;;;;;6.70;5.60;;;;;;;;;;1044155;28;20379;-77
2022/11/16 00:36:44;;;;;;;6.88;5.47;;;;;;;;;;1043921;28;20394;-76
2022/11/16 00:37:15;;;;;;;7.20;5.75;;;;;;;;;;1043910;28;20021;-76
2022/11/16 00:37:46;;;;;;;6.25;5.60;;;;;;;;;;1043783;28;20017;-77
2022/11/16 00:38:17;;;;;;;6.20;5.30;;;;;;;;;;1043730;28;20440;-77
2022/11/16 00:38:51;;;;;;;5.25;4.75;;;;;;;;;;1043705;28;20025;-77
2022/11/16 00:39:22;;;;;;;5.95;5.35;;;;;;;;;;1043575;28;20045;-77
2022/11/16 00:39:53;;;;;;;6.32;3.80;;;;;;;;;;1043088;28;20530;-78
2022/11/16 00:40:24;;;;;;;7.05;6.22;;;;;;;;;;1043385;28;20542;-77
2022/11/16 00:40:55;;;;;;;4.38;3.90;;;;;;;;;;1047187;28;20028;-77
2022/11/16 00:41:26;;;;;;;9.23;6.03;;;;;;;;;;1047352;28;20045;-77
2022/11/16 00:41:57;;;;;;;6.15;5.00;;;;;;;;;;1047238;28;20082;-78
2022/11/16 00:42:28;;;;;;;6.18;5.47;;;;;;;;;;1046883;28;20023;-77
2022/11/16 00:42:59;;;;;;;5.88;5.28;;;;;;;;;;1038771;28;20673;-77
2022/11/16 00:43:30;;;;;;;6.68;6.07;;;;;;;;;;1040014;28;20111;-77
2022/11/16 00:44:01;;;;;;;5.15;4.63;;;;;;;;;;1034940;28;20033;-78
2022/11/16 00:44:32;;;;;;;4.82;4.32;;;;;;;;;;1035079;28;20030;-77
2022/11/16 00:45:03;;;;;;;6.40;5.80;;;;;;;;;;1039844;28;20029;-78
2022/11/16 00:45:34;;;;;;;5.88;5.15;;;;;;;;;;1042993;28;20469;-77
2022/11/16 00:46:05;;;;;;;7.07;6.03;;;;;;;;;;1043455;28;20458;-78
2022/11/16 00:46:36;;;;;;;7.35;6.65;;;;;;;;;;1043468;28;20021;-78
2022/11/16 00:47:07;;;;;;;8.32;7.40;;;;;;;;;;1047224;28;20036;-77
2022/11/16 00:47:38;;;;;;;8.38;7.53;;;;;;;;;;1046858;28;20028;-77
2022/11/16 00:48:10;;;;;;;6.68;5.50;;;;;;;;;;1047392;28;20028;-78
2022/11/16 00:48:40;;;;;;;6.57;5.88;;;;;;;;;;1044503;28;20166;-77
2022/11/16 00:49:11;;;;;;;5.47;4.97;;;;;;;;;;1043476;28;20788;-78
2022/11/16 00:49:42;;;;;;;7.53;6.53;;;;;;;;;;1042806;28;20061;-77
2022/11/16 00:50:13;;;;;;;6.65;5.97;;;;;;;;;;1042922;28;20032;-78
2022/11/16 00:50:45;;;;;;;8.07;5.88;;;;;;;;;;1042925;28;20111;-77
2022/11/16 00:51:16;;;;;;;5.68;4.93;;;;;;;;;;1039068;28;20021;-77
2022/11/16 00:51:46;;;;;;;6.95;6.25;;;;;;;;;;1039017;28;20030;-78
2022/11/16 00:52:17;;;;;;;6.78;6.18;;;;;;;;;;1038971;28;20030;-77
2022/11/16 00:52:48;;;;;;;6.90;6.20;;;;;;;;;;1039087;28;20025;-77
2022/11/16 00:53:20;;;;;;;4.55;3.92;;;;;;;;;;1038993;28;20504;-77
2022/11/16 00:53:51;;;;;;;5.70;4.97;;;;;;;;;;1039047;28;20017;-78
2022/11/16 00:54:22;;;;;;;7.03;6.05;;;;;;;;;;1043171;28;20708;-77
2022/11/16 00:54:53;;;;;;;6.32;4.82;;;;;;;;;;1038905;28;20033;-77
2022/11/16 00:55:23;;;;;;;7.65;6.93;;;;;;;;;;1038717;28;20029;-78
2022/11/16 00:55:54;;;;;;;5.35;4.85;;;;;;;;;;1038941;28;20033;-77
2022/11/16 00:56:25;;;;;;;5.97;4.78;;;;;;;;;;1035418;28;20030;-77
2022/11/16 00:56:56;;;;;;;5.97;5.38;;;;;;;;;;1035200;28;20117;-77
2022/11/16 00:57:27;;;;;;;6.65;5.88;;;;;;;;;;1038969;28;20197;-77
2022/11/16 00:57:58;;;;;;;5.05;3.85;;;;;;;;;;1039315;28;20044;-78
2022/11/16 00:58:29;;;;;;;6.22;4.57;;;;;;;;;;1039012;28;20026;-78
2022/11/16 00:59:00;;;;;;;7.03;5.78;;;;;;;;;;1042851;28;20538;-78
2022/11/16 00:59:31;;;;;;;6.95;6.25;;;;;;;;;;1047646;28;20510;-77
2022/11/16 01:00:04;;;;;;;6.10;5.38;;;;;;;;;;1047234;28;20071;-77
2022/11/16 01:00:35;;;;;;;6.70;5.85;;;;;;;;;;1041972;28;20109;-77
2022/11/16 01:01:06;;;;;;;6.07;5.47;;;;;;;;;;1038732;28;20040;-77
2022/11/16 01:01:37;;;;;;;6.70;6.07;;;;;;;;;;1039116;28;20028;-77
2022/11/16 01:02:08;;;;;;;6.65;5.68;;;;;;;;;;1039016;28;20104;-78
2022/11/16 01:02:40;;;;;;;5.22;4.72;;;;;;;;;;1039382;28;20460;-78
2022/11/16 01:03:11;;;;;;;7.55;6.10;;;;;;;;;;1039038;28;20029;-78
2022/11/16 01:03:42;;;;;;;8.32;5.13;;;;;;;;;;1039354;28;20022;-78
2022/11/16 01:04:13;;;;;;;5.53;4.75;;;;;;;;;;1042987;28;20412;-77
2022/11/16 01:04:44;;;;;;;7.72;6.70;;;;;;;;;;1043329;28;20088;-77
2022/11/16 01:05:15;;;;;;;6.97;6.30;;;;;;;;;;1038625;28;20063;-77
2022/11/16 01:05:46;;;;;;;8.35;7.40;;;;;;;;;;1035138;28;20026;-77
2022/11/16 01:06:17;;;;;;;6.78;5.88;;;;;;;;;;1038733;28;20033;-77
2022/11/16 01:06:48;;;;;;;6.15;5.55;;;;;;;;;;1039632;28;20087;-78
2022/11/16 01:07:19;;;;;;;6.57;5.25;;;;;;;;;;1039246;28;20088;-77
2022/11/16 01:07:50;;;;;;;6.85;6.15;;;;;;;;;;1043099;28;20036;-78
2022/11/16 01:08:21;;;;;;;7.60;5.68;;;;;;;;;;1038789;28;20475;-78
2022/11/16 01:08:52;;;;;;;6.60;5.90;;;;;;;;;;1039365;28;20528;-78
2022/11/16 01:09:23;;;;;;;6.13;5.53;;;;;;;;;;1038975;28;20033;-78
2022/11/16 01:09:54;;;;;;;6.43;5.68;;;;;;;;;;1039670;28;20029;-78
2022/11/16 01:10:26;;;;;;;6.25;5.22;;;;;;;;;;1042884;28;20475;-78
2022/11/16 01:12:11;;;;;;;5.18;4.57;;;;;;;;;;1034651;28;20830;-77
2022/11/16 01:12:42;;;;;;;5.55;4.72;;;;;;;;;;1038279;28;20022;-76
2022/11/16 01:13:13;;;;;;;5.32;4.75;;;;;;;;;;1042094;28;20021;-77
2022/11/16 01:13:44;;;;;;;9.45;4.68;;;;;;;;;;1039525;28;20037;-77
2022/11/16 01:14:15;;;;;;;6.25;5.65;;;;;;;;;;1042848;28;20025;-77
2022/11/16 01:14:46;;;;;;;9.60;7.90;;;;;;;;;;1043688;28;20029;-77
2022/11/16 01:15:18;;;;;;;6.90;6.20;;;;;;;;;;1044321;28;20121;-77
2022/11/16 01:15:49;;;;;;;6.03;4.82;;;;;;;;;;1043215;28;20861;-77
2022/11/16 01:16:21;;;;;;;6.38;5.50;;;;;;;;;;1042433;28;20558;-77
2022/11/16 01:16:52;;;;;;;7.03;6.30;;;;;;;;;;1039342;28;20080;-77
2022/11/16 01:17:23;;;;;;;6.68;5.97;;;;;;;;;;1035411;28;20048;-77
2022/11/16 01:17:55;;;;;;;6.30;5.70;;;;;;;;;;1039778;28;20022;-77
2022/11/16 01:18:26;;;;;;;7.05;6.40;;;;;;;;;;1040314;28;20560;-77
2022/11/16 01:18:57;;;;;;;6.10;5.50;;;;;;;;;;1043962;28;20494;-78
2022/11/16 01:19:28;;;;;;;6.78;5.85;;;;;;;;;;1044472;28;20380;-78
2022/11/16 01:19:59;;;;;;;6.30;4.97;;;;;;;;;;1044338;28;20056;-78
2022/11/16 01:20:30;;;;;;;6.75;6.03;;;;;;;;;;1044315;28;20037;-77
2022/11/16 01:21:01;;;;;;;5.80;5.22;;;;;;;;;;1044125;28;20377;-77
2022/11/16 01:21:32;;;;;;;6.30;5.70;;;;;;;;;;1044326;28;20531;-77
2022/11/16 01:22:03;;;;;;;8.25;7.30;;;;;;;;;;1044259;28;20017;-77
2022/11/16 01:22:35;;;;;;;8.00;7.20;;;;;;;;;;1044202;28;20105;-78
2022/11/16 01:23:06;;;;;;;9.30;6.35;;;;;;;;;;1042050;28;20045;-77
2022/11/16 01:23:37;;;;;;;6.55;5.80;;;;;;;;;;1039774;28;20396;-77
2022/11/16 01:24:08;;;;;;;6.10;5.47;;;;;;;;;;1039512;28;20468;-77
2022/11/16 01:24:39;;;;;;;7.05;6.22;;;;;;;;;;1039517;28;20029;-77
2022/11/16 01:25:11;;;;;;;6.00;5.28;;;;;;;;;;1039512;28;20472;-77
2022/11/16 01:25:42;;;;;;;8.43;5.78;;;;;;;;;;1035518;28;20465;-77
2022/11/16 01:26:13;;;;;;;6.63;5.65;;;;;;;;;;1038811;28;20095;-77
2022/11/16 01:26:44;;;;;;;4.95;4.28;;;;;;;;;;1043784;28;20081;-77
2022/11/16 01:27:15;;;;;;;5.95;4.80;;;;;;;;;;1043608;28;20058;-77
2022/11/16 01:27:46;;;;;;;6.40;5.20;;;;;;;;;;1041283;28;20021;-77
2022/11/16 01:28:17;;;;;;;8.63;5.53;;;;;;;;;;1042649;28;20824;-77
2022/11/16 01:28:47;;;;;;;6.53;5.55;;;;;;;;;;1043411;28;20849;-77
2022/11/16 01:29:18;;;;;;;6.25;5.65;;;;;;;;;;1045744;28;20041;-77
2022/11/16 01:29:49;;;;;;;6.32;5.68;;;;;;;;;;1044721;28;20025;-77
2022/11/16 01:30:20;;;;;;;6.05;5.40;;;;;;;;;;1038858;28;20516;-78
2022/11/16 01:30:51;;;;;;;6.72;5.93;;;;;;;;;;1035993;28;20098;-78
2022/11/16 01:31:22;;;;;;;7.00;6.30;;;;;;;;;;1038215;28;20079;-78
2022/11/16 01:31:54;;;;;;;5.60;4.78;;;;;;;;;;1038950;28;20025;-78
2022/11/16 01:32:25;;;;;;;6.32;5.50;;;;;;;;;;1042676;28;20029;-78
2022/11/16 01:32:56;;;;;;;7.43;6.38;;;;;;;;;;1039234;28;20415;-77
2022/11/16 01:33:28;;;;;;;6.10;5.50;;;;;;;;;;1042495;28;20428;-77
2022/11/16 01:33:59;;;;;;;7.63;6.55;;;;;;;;;;1042529;28;20018;-78
2022/11/16 01:34:30;;;;;;;8.70;6.75;;;;;;;;;;1042543;28;20128;-77
2022/11/16 01:35:01;;;;;;;7.35;6.57;;;;;;;;;;1042454;28;20025;-78
2022/11/16 01:35:31;;;;;;;6.97;6.28;;;;;;;;;;1038695;28;20024;-77
2022/11/16 01:36:03;;;;;;;7.70;6.93;;;;;;;;;;1038591;28;20029;-77
2022/11/16 01:36:35;;;;;;;6.07;5.47;;;;;;;;;;1039173;28;20022;-78
2022/11/16 01:37:06;;;;;;;5.90;5.28;;;;;;;;;;1039861;28;20041;-77
2022/11/16 01:37:37;;;;;;;6.32;5.70;;;;;;;;;;1043822;28;20031;-78
2022/11/16 01:38:08;;;;;;;5.75;4.82;;;;;;;;;;1039875;28;20018;-78
2022/11/16 01:38:43;;;;;;;8.20;6.70;;;;;;;;;;1039597;28;20029;-77
2022/11/16 01:39:14;;;;;;;7.88;6.20;;;;;;;;;;1043793;28;20060;-77
2022/11/16 01:39:45;;;;;;;6.55;5.85;;;;;;;;;;1043133;28;20025;-77
2022/11/16 01:40:16;;;;;;;7.53;6.78;;;;;;;;;;1039561;28;20013;-78
2022/11/16 01:40:47;;;;;;;7.10;6.00;;;;;;;;;;1039677;28;20041;-78
2022/11/16 01:41:20;;;;;;;6.82;6.07;;;;;;;;;;1039462;28;20045;-78
2022/11/16 01:41:50;;;;;;;7.72;7.03;;;;;;;;;;1035914;28;20487;-78
2022/11/16 01:42:23;;;;;;;7.25;6.55;;;;;;;;;;1040269;28;20526;-77
2022/11/16 01:42:54;;;;;;;7.88;6.60;;;;;;;;;;1043967;28;20025;-77
2022/11/16 01:43:26;;;;;;;6.65;5.72;;;;;;;;;;1043582;28;20025;-78
2022/11/16 01:43:59;;;;;;;6.35;5.72;;;;;;;;;;1043077;28;20016;-78
2022/11/16 01:44:33;;;;;;;5.85;5.25;;;;;;;;;;1043702;28;20339;-77
2022/11/16 01:45:15;;;;;;;7.28;5.65;;;;;;;;;;1044135;28;20373;-81
2022/11/16 01:45:46;;;;;;;6.85;5.65;;;;;;;;;;1043649;28;20495;-78
2022/11/16 01:46:17;;;;;;;6.88;5.55;;;;;;;;;;1043145;28;20031;-77
2022/11/16 01:46:48;;;;;;;6.68;6.07;;;;;;;;;;1044307;28;20493;-77
2022/11/16 01:47:19;;;;;;;6.70;6.00;;;;;;;;;;1042490;28;20032;-78
2022/11/16 01:47:52;;;;;;;6.57;5.95;;;;;;;;;;1038689;28;20112;-77
2022/11/16 01:48:25;;;;;;;7.10;6.18;;;;;;;;;;1043449;28;20055;-78
2022/11/16 01:49:01;;;;;;;6.95;5.55;;;;;;;;;;1044036;28;20029;-78
2022/11/16 01:49:34;;;;;;;5.63;5.13;;;;;;;;;;1043743;28;20175;-78
2022/11/16 01:50:10;;;;;;;6.80;5.63;;;;;;;;;;1043596;28;20070;-78
2022/11/16 01:50:41;;;;;;;6.68;5.97;;;;;;;;;;1043643;28;20021;-78
2022/11/16 01:51:12;;;;;;;7.47;5.60;;;;;;;;;;1044492;28;20078;-78
2022/11/16 01:51:46;;;;;;;5.93;5.32;;;;;;;;;;1043130;28;20029;-78
2022/11/16 01:52:19;;;;;;;7.78;6.97;;;;;;;;;;1043645;28;20036;-78
2022/11/16 01:53:01;;;;;;;5.75;5.10;;;;;;;;;;1039306;28;20025;-79
2022/11/16 01:53:32;;;;;;;7.95;6.95;;;;;;;;;;1039465;28;20021;-78
2022/11/16 01:54:05;;;;;;;7.55;6.57;;;;;;;;;;1043456;28;20060;-78
2022/11/16 01:54:37;;;;;;;5.80;5.25;;;;;;;;;;1044747;28;20468;-78
2022/11/16 01:55:09;;;;;;;7.05;6.35;;;;;;;;;;1043482;28;20021;-78
2022/11/16 01:55:41;;;;;;;6.72;5.60;;;;;;;;;;1043287;28;20029;-78
2022/11/16 01:56:12;;;;;;;5.88;5.25;;;;;;;;;;1042955;28;20134;-78
2022/11/16 01:56:44;;;;;;;6.15;5.55;;;;;;;;;;1042527;28;20009;-79
2022/11/16 01:57:18;;;;;;;6.47;5.85;;;;;;;;;;1043024;28;20020;-79
2022/11/16 01:57:49;;;;;;;7.65;6.72;;;;;;;;;;1042393;28;20136;-78
2022/11/16 01:58:22;;;;;;;8.55;5.88;;;;;;;;;;1039319;28;20026;-78
2022/11/16 01:58:53;;;;;;;6.10;5.50;;;;;;;;;;1038388;28;20410;-79
2022/11/16 01:59:24;;;;;;;7.13;6.43;;;;;;;;;;1035094;28;20083;-78
2022/11/16 01:59:57;;;;;;;6.20;5.47;;;;;;;;;;1038836;28;20056;-78
2022/11/16 02:00:28;;;;;;;6.85;5.57;;;;;;;;;;1042657;28;20020;-78
2022/11/16 02:00:59;;;;;;;7.88;7.07;;;;;;;;;;1039409;28;20392;-78
2022/11/16 02:01:30;;;;;;;6.75;6.15;;;;;;;;;;1038613;28;20423;-78
2022/11/16 02:02:01;;;;;;;6.13;5.53;;;;;;;;;;1038792;28;20130;-78
2022/11/16 02:02:32;;;;;;;8.20;6.05;;;;;;;;;;1035016;28;20381;-78
2022/11/16 02:03:03;;;;;;;7.55;6.85;;;;;;;;;;1034669;28;20667;-78
2022/11/16 02:03:36;;;;;;;6.18;5.57;;;;;;;;;;1034938;28;20105;-78
2022/11/16 02:04:11;;;;;;;7.05;6.35;;;;;;;;;;1035180;28;20539;-78
2022/11/16 02:04:43;;;;;;;5.95;5.15;;;;;;;;;;1039850;28;20049;-78
2022/11/16 02:05:16;;;;;;;6.18;5.57;;;;;;;;;;1042767;28;20013;-79
2022/11/16 02:05:50;;;;;;;6.30;5.70;;;;;;;;;;1043596;28;20515;-79
2022/11/16 02:06:30;;;;;;;9.75;6.30;;;;;;;;;;1038686;28;20025;-78
2022/11/16 02:07:01;;;;;;;6.35;5.55;;;;;;;;;;1039066;28;20013;-78
2022/11/16 02:10:24;;;;;;;8.30;6.75;;;;;;;;;;1042191;28;20060;-78
2022/11/16 02:10:55;;;;;;;7.03;6.32;;;;;;;;;;1042267;28;20041;-78
2022/11/16 02:11:31;;;;;;;4.95;4.35;;;;;;;;;;1043011;28;20017;-77
2022/11/16 02:12:05;;;;;;;8.13;7.35;;;;;;;;;;1041836;28;20013;-77
2022/11/16 02:12:39;;;;;;;8.98;7.47;;;;;;;;;;1042050;28;20071;-77
2022/11/16 02:13:20;;;;;;;7.68;6.93;;;;;;;;;;1042942;28;20028;-77
2022/11/16 02:13:58;;;;;;;7.57;5.90;;;;;;;;;;1044299;28;20455;-77
2022/11/16 02:14:29;;;;;;;7.18;6.57;;;;;;;;;;1041523;28;20021;-77
2022/11/16 02:15:18;;;;;;;6.57;5.77;;;;;;;;;;1038886;28;20017;-77
2022/11/16 02:15:55;;;;;;;10.35;9.18;;;;;;;;;;1039572;28;20674;-77
2022/11/16 02:16:49;;;;;;;7.53;6.80;;;;;;;;;;1041035;28;20488;-78
2022/11/16 02:17:34;;;;;;;6.35;5.75;;;;;;;;;;1042775;28;20434;-78
2022/11/16 02:18:11;;;;;;;7.25;6.47;;;;;;;;;;1043033;28;20029;-78
2022/11/16 02:18:48;;;;;;;6.50;5.90;;;;;;;;;;1042821;28;20031;-77
2022/11/16 02:19:30;;;;;;;7.20;6.50;;;;;;;;;;1041217;28;20115;-77
2022/11/16 02:20:20;;;;;;;7.32;6.07;;;;;;;;;;1042714;28;20108;-77
2022/11/16 02:21:03;;;;;;;7.20;6.40;;;;;;;;;;1042237;28;20491;-78
2022/11/16 02:21:38;;;;;;;8.02;5.45;;;;;;;;;;1039550;28;20421;-78
2022/11/16 02:22:27;;;;;;;6.30;5.70;;;;;;;;;;1039247;28;20589;-77
2022/11/16 02:22:58;;;;;;;6.70;6.05;;;;;;;;;;1038358;28;20148;-78
2022/11/16 02:23:39;;;;;;;8.50;6.37;;;;;;;;;;1038638;28;20022;-77
2022/11/16 02:24:27;;;;;;;7.53;5.80;;;;;;;;;;1042511;28;20778;-78
2022/11/16 02:24:58;;;;;;;6.70;5.60;;;;;;;;;;1042894;28;20025;-77
2022/11/16 02:25:37;;;;;;;5.20;4.63;;;;;;;;;;1042179;28;20131;-79
2022/11/16 02:26:24;;;;;;;4.63;4.00;;;;;;;;;;1041609;28;20017;-78
2022/11/16 02:26:55;;;;;;;7.20;6.07;;;;;;;;;;1043258;28;20048;-77
2022/11/16 02:27:27;;;;;;;10.05;9.15;;;;;;;;;;1040654;28;20029;-78
2022/11/16 02:28:01;;;;;;;8.07;7.30;;;;;;;;;;1042603;28;20017;-77
2022/11/16 02:28:47;;;;;;;6.50;5.80;;;;;;;;;;1042518;28;20289;-77
2022/11/16 02:29:20;;;;;;;5.40;4.90;;;;;;;;;;1042504;28;20029;-78
2022/11/16 02:29:52;;;;;;;6.95;6.25;;;;;;;;;;1038654;28;20021;-77
2022/11/16 02:30:24;;;;;;;6.43;5.82;;;;;;;;;;1038504;28;20021;-78
2022/11/16 02:30:57;;;;;;;7.25;6.45;;;;;;;;;;1039060;28;20025;-77
2022/11/16 02:31:32;;;;;;;7.15;6.00;;;;;;;;;;1042353;28;20051;-78
2022/11/16 02:32:14;;;;;;;6.05;5.45;;;;;;;;;;1042923;28;20029;-77
2022/11/16 02:32:51;;;;;;;6.10;5.45;;;;;;;;;;1038487;28;20021;-77
2022/11/16 02:33:26;;;;;;;6.82;6.10;;;;;;;;;;1041030;28;20079;-77
2022/11/16 02:33:58;;;;;;;5.53;4.93;;;;;;;;;;1042802;28;20021;-78
2022/11/16 02:34:35;;;;;;;6.47;5.88;;;;;;;;;;1042838;28;20021;-78
2022/11/16 02:35:32;;;;;;;8.27;6.72;;;;;;;;;;1042800;28;20029;-77
2022/11/16 02:36:05;;;;;;;6.72;5.93;;;;;;;;;;1039811;28;20041;-77
2022/11/16 02:36:38;;;;;;;8.70;6.18;;;;;;;;;;1043389;28;20036;-79
2022/11/16 02:37:10;;;;;;;6.25;5.60;;;;;;;;;;1043278;28;20127;-79
2022/11/16 02:37:53;;;;;;;8.40;6.45;;;;;;;;;;1042785;28;20078;-77
2022/11/16 02:38:26;;;;;;;7.25;6.55;;;;;;;;;;1039251;28;20655;-79
2022/11/16 02:39:00;;;;;;;6.93;5.68;;;;;;;;;;1041473;28;20018;-78
2022/11/16 02:39:32;;;;;;;7.55;5.68;;;;;;;;;;1039123;28;20041;-78
2022/11/16 02:40:05;;;;;;;6.30;5.38;;;;;;;;;;1038398;28;20033;-77
2022/11/16 02:40:39;;;;;;;6.97;6.32;;;;;;;;;;1038505;28;20512;-77
2022/11/16 02:41:12;;;;;;;5.65;4.70;;;;;;;;;;1039517;28;20044;-77
2022/11/16 02:41:45;;;;;;;5.00;4.25;;;;;;;;;;1044371;28;20025;-78
2022/11/16 02:42:22;;;;;;;6.20;5.25;;;;;;;;;;1046051;28;20025;-78
2022/11/16 02:42:57;;;;;;;5.80;4.90;;;;;;;;;;1042959;28;20021;-77
2022/11/16 02:43:30;;;;;;;7.07;5.10;;;;;;;;;;1042606;28;20110;-77
2022/11/16 02:44:03;;;;;;;6.30;5.65;;;;;;;;;;1042179;28;20070;-77
2022/11/16 02:44:36;;;;;;;6.80;6.13;;;;;;;;;;1043667;28;20013;-77
2022/11/16 02:45:10;;;;;;;7.70;6.90;;;;;;;;;;1044602;28;20483;-79
2022/11/16 02:45:45;;;;;;;6.20;5.60;;;;;;;;;;1036912;28;20022;-77
2022/11/16 02:46:19;;;;;;;5.53;4.88;;;;;;;;;;1035265;28;20054;-79
2022/11/16 02:46:52;;;;;;;6.45;5.15;;;;;;;;;;1036368;28;20113;-78
2022/11/16 02:47:26;;;;;;;5.90;5.30;;;;;;;;;;1036624;28;20061;-78
2022/11/16 02:47:59;;;;;;;7.13;6.28;;;;;;;;;;1040695;28;20030;-78
2022/11/16 02:48:51;;;;;;;7.55;5.68;;;;;;;;;;1043144;28;20033;-78
2022/11/16 02:49:25;;;;;;;7.35;5.95;;;;;;;;;;1042940;28;20422;-78
2022/11/16 02:49:59;;;;;;;5.43;4.90;;;;;;;;;;1039015;28;20033;-78
2022/11/16 02:50:31;;;;;;;6.97;5.55;;;;;;;;;;1034200;28;20030;-77
2022/11/16 02:51:05;;;;;;;5.65;4.93;;;;;;;;;;1034704;28;20197;-77
2022/11/16 02:51:36;;;;;;;7.80;7.10;;;;;;;;;;1031370;28;20672;-77
2022/11/16 02:52:09;;;;;;;6.00;5.25;;;;;;;;;;1035804;28;20049;-77
2022/11/16 02:52:40;;;;;;;6.22;5.53;;;;;;;;;;1035239;28;20400;-77
2022/11/16 02:53:11;;;;;;;6.10;4.70;;;;;;;;;;1039273;28;20045;-77
2022/11/16 02:54:02;;;;;;;5.50;4.60;;;;;;;;;;1038191;28;20028;-77
2022/11/16 02:54:35;;;;;;;7.15;6.40;;;;;;;;;;1036812;28;20025;-78
2022/11/16 02:55:06;;;;;;;5.97;5.38;;;;;;;;;;1035165;28;20061;-78
2022/11/16 02:55:37;;;;;;;7.72;6.32;;;;;;;;;;1037917;28;20096;-78
2022/11/16 02:56:11;;;;;;;5.68;4.78;;;;;;;;;;1039453;28;20127;-78
2022/11/16 02:56:50;;;;;;;5.72;5.22;;;;;;;;;;1042849;28;20087;-76
2022/11/16 02:57:41;;;;;;;7.35;5.93;;;;;;;;;;1043045;28;20115;-76
2022/11/16 02:58:14;;;;;;;5.70;4.97;;;;;;;;;;1042549;28;20032;-76
2022/11/16 02:58:45;;;;;;;5.70;4.63;;;;;;;;;;1038337;28;20076;-76
2022/11/16 02:59:16;;;;;;;7.28;5.60;;;;;;;;;;1041560;28;20516;-76
2022/11/16 02:59:50;;;;;;;6.45;4.95;;;;;;;;;;1039762;28;20034;-78
2022/11/16 03:00:22;;;;;;;8.05;5.80;;;;;;;;;;1042758;28;20017;-76
2022/11/16 03:01:08;;;;;;;5.88;5.25;;;;;;;;;;1038177;28;20033;-76
2022/11/16 03:01:41;;;;;;;5.82;4.90;;;;;;;;;;1038153;28;20393;-76
2022/11/16 03:02:30;;;;;;;6.20;5.60;;;;;;;;;;1038698;28;20033;-76
2022/11/16 03:03:04;;;;;;;5.25;4.20;;;;;;;;;;1042606;28;20454;-76
2022/11/16 03:03:53;;;;;;;5.57;4.68;;;;;;;;;;1041752;28;20741;-76
2022/11/16 03:04:37;;;;;;;5.93;4.82;;;;;;;;;;1038445;28;20025;-77
2022/11/16 03:05:20;;;;;;;7.63;5.43;;;;;;;;;;1038730;28;20033;-76
2022/11/16 03:05:52;;;;;;;4.50;4.10;;;;;;;;;;1042737;28;20033;-76
2022/11/16 03:06:29;;;;;;;4.80;4.30;;;;;;;;;;1042256;28;20155;-77
2022/11/16 03:07:03;;;;;;;6.45;4.82;;;;;;;;;;1042585;28;20103;-77
2022/11/16 03:07:40;;;;;;;5.03;4.50;;;;;;;;;;1038771;28;20057;-77
2022/11/16 03:08:26;;;;;;;6.22;4.80;;;;;;;;;;1040565;28;20029;-77
2022/11/16 03:09:02;;;;;;;6.00;5.07;;;;;;;;;;1042723;28;20029;-77
2022/11/16 03:09:35;;;;;;;5.05;4.50;;;;;;;;;;1042728;28;20040;-77
2022/11/16 03:10:07;;;;;;;5.85;5.10;;;;;;;;;;1043033;28;20029;-77
2022/11/16 03:12:21;;;;;;;7.70;5.38;;;;;;;;;;1043083;28;20044;-77
2022/11/16 03:12:52;;;;;;;8.20;5.30;;;;;;;;;;1042142;28;20031;-78
2022/11/16 03:13:26;;;;;;;5.75;5.10;;;;;;;;;;1042578;28;20542;-77
2022/11/16 03:13:59;;;;;;;5.47;4.90;;;;;;;;;;1042411;28;20117;-77
2022/11/16 03:14:34;;;;;;;6.18;5.07;;;;;;;;;;1042353;28;20033;-76
2022/11/16 03:15:06;;;;;;;4.68;4.15;;;;;;;;;;1043212;28;20480;-77
2022/11/16 03:15:39;;;;;;;6.15;5.18;;;;;;;;;;1042225;28;20439;-77
2022/11/16 03:16:14;;;;;;;6.35;5.28;;;;;;;;;;1042596;28;20025;-77
2022/11/16 03:16:48;;;;;;;7.63;5.10;;;;;;;;;;1042253;28;20052;-77
2022/11/16 03:17:29;;;;;;;4.70;4.13;;;;;;;;;;1041153;28;20029;-77
2022/11/16 03:18:00;;;;;;;5.93;4.55;;;;;;;;;;1038470;28;20017;-76
2022/11/16 03:18:32;;;;;;;5.72;5.18;;;;;;;;;;1034332;28;20026;-77
2022/11/16 03:19:06;;;;;;;4.68;4.28;;;;;;;;;;1036143;28;20018;-77
2022/11/16 03:19:43;;;;;;;4.82;4.32;;;;;;;;;;1038547;28;20068;-77
2022/11/16 03:20:14;;;;;;;5.82;4.85;;;;;;;;;;1040423;28;20029;-76
2022/11/16 03:20:46;;;;;;;4.93;4.38;;;;;;;;;;1038494;28;20025;-76
2022/11/16 03:21:24;;;;;;;5.20;4.57;;;;;;;;;;1038504;28;20075;-76
2022/11/16 03:21:57;;;;;;;4.88;3.95;;;;;;;;;;1038151;28;20083;-76
2022/11/16 03:22:34;;;;;;;5.45;4.82;;;;;;;;;;1038590;28;20025;-77
2022/11/16 03:23:08;;;;;;;5.28;4.78;;;;;;;;;;1038450;28;20022;-77
2022/11/16 03:23:39;;;;;;;4.43;3.63;;;;;;;;;;1036273;28;20425;-77
2022/11/16 03:24:10;;;;;;;5.65;4.25;;;;;;;;;;1041536;28;20036;-78
2022/11/16 03:24:41;;;;;;;4.65;3.88;;;;;;;;;;1042740;28;20022;-78